الصفحة الرئيسية
METAR-TAF:

METAR-TAF

مطار :

مطار هواري بومدين الدولي

الجزائر, الجزائر

دائرة عرض: 36-43N, خط طول: 003-15E, ارتفاع: 25 متر

مراقبة الطقس الحالي

تاريخ ووقت الإصدار 10 دقيقة قبل الساعة 01:00UTC
ريح 3 عقدة من الجنوب
درجة الحرارة 21°درجة مئوية
الرطوبة 78%
ضغط 1014 hPa
الرؤية 10 كم أو أكثر
الغيوم لا تقل 1500 م ولا وجود لمزنة ركامية السحاب الأسود

METAR: DAAG 170100Z 18003KT CAVOK 21/17 Q1014

زمن: 02:10 (01:10 UTC)

توقعات

تاريخ ووقت الإصدار 2ساعات و 10 دقيقة قبل الساعة 23:00UTC
التوقعات صالحة من17 الساعة 00 UTC إلى 17 الساعة 24 UTC
ريح 2 عقدةمن اتجاهات متغيرة
الرؤية 10 كم أو أكثر
غيوم قليلة على ارتفاع 2600 قدم
غيوم متفرقة على ارتفاع 22000 قدم
مؤقت
من 17 الساعة 09 UTC إلى 17 الساعة 20 UTC
غيوم متفرقة على ارتفاع 2600 قدم, مزن ركامية عمودية.
غيوم قليلة على ارتفاع 3000 قدم, مزنة ركامية.
أصبح
من 17 الساعة 10 UTC إلى 17 الساعة 13 UTC
ريح 12 عقدة من الشمال/الشمال الشرقي
أصبح
من 17 الساعة 20 UTC إلى 17 الساعة 24 UTC
ريح 2 عقدةمن اتجاهات متغيرة

TAF: DAAG 162300Z 1700/1724 VRB02KT 9999 FEW026 SCT220 TEMPO 1709/1720 SCT026TCU FEW030CB BECMG 1710/1713 03012KT BECMG 1720/1724 VRB02KT

أرصاد الطقس والتوقعات من أكثر من 4000 مطار (تقارير الطقس للمطار METAR والتنبؤ بالطقس بالمطارTAF).

المحطات المتاحة هي النقط الصفراء والحمراء على الخريطة.

حرك المؤشر فوق النقطة لمعرفة اسم المحطة.

ثم انقر لمعرفة أرصاد وتوقعات الطقس.

لتغيير الخارطة: اضغط على الأزرار الخضراء مع رمز الصليب الأسود للتكبير. على الزر الأخضر مع شرطة للتصغير، أو على الأسهم الخضراء للخرائط المجاورة.


METAR-TAF: